メインページ
METAR-TAF:

METAR-TAF

空港 :

ウェリントン国際空港

ウェリントン, ニュージーランド

緯度: 41-20S, 経度: 174-48E, 海抜: 12m

現時点の気象観測

当レポートは38分前の20:30(UTC)に作成
西/北西の風 4kt、西から北/北西の間で変化する
気温 11°C
湿度 66%
気圧 989 hPa
視程10km以上

METAR: NZWN 222030Z AUTO 29004KT 270V330 9999 NCD 11/05 Q0989 NOSIG

時間: 09:08 (21:08 UTC)

予報

当レポートは4時間3分前の17:05(UTC)に作成
予報は22日の 18時(UTC)から 23日の 18時(UTC)まで有効
北西の風 15kt
視程10km以上
高度4000ftの雲はほとんどない
23日の 04時(UTC)から 23日の 06時(UTC)まで徐々に
の風 15kt
23日の 05時(UTC)から 23日の 07時(UTC)まで一時的に
視程: 7000m
にわか雨
23日の 15時(UTC)から 23日の 17時(UTC)まで徐々に
北西の風 10kt

TAF: NZWN 221705Z 2218/2318 32015KT 9999 FEW040 BECMG 2304/2306 18015KT TEMPO 2305/2307 7000 SHRA BECMG 2315/2317 32010KT

4,000以上の空港の気象観測と天気予報(METAR報とTAF報)

利用可能な観測所は地図上に黄色い丸と赤い丸で示す。

丸の上にカーソルを重ねると観測所名を参照できる。

次にクリックすると気象観測と天気予報を参照できる。

マップの切り替え:黒色「×」印の緑ボタンをクリックして拡大、「-」印の緑ボタンをクリックして縮小、緑色の三角印をクリックして隣りの地図に切り替え


METAR-TAF: